EGMCEGSS

Guest
Details From EGMC - Southend
To EGSS - London Stansted
Flight Number -
Tags generated
Created
Modified
Stats Distance 26 nm / 47 km
Max Altitude 900 ft / 274 m
Waypoints 3
Social Downloads 0
Likes 0
Share VATSIM

Download

Looking for another format? Having issues loading an existing format? Contact us
Advertisement - Login to hide

Notes

Basic altitude profile: - Ascent Rate: 800ft/min - Ascent Speed: 90kts - Cruise Altitude: 2500ft - Cruise Speed: 130kts - Descent Rate: 800ft/min - Descent Speed: 90kts Options: - Use NATs: no - Use PACOTS: no - Use low airways: yes - Use high airways: no

Route

EGMC NILON EGSS

ID Type Via Altitude Latitude Longitude Leg Dist Tot Dist Heading (true) Name
O EGMC APT - 0 ft / 0 m 51.57144˚ 0.69558˚ - 0 nm - Southend
NILON FIX - 900 ft / 274 m 51.59611˚ 0.63444˚ 2 nm 2 nm 303° / 303° -
O EGSS APT - 0 ft / 0 m 51.88510˚ 0.23496˚ 22 nm 25 nm 320° / 319° London Stansted

Altitude Profile

Advertisement - Login to hide

EGMC

Details ICAO EGMC (SEN)
Name Southend
Region United Kingdom
Timezone Europe/London (UTC+0.0)
Stats Elevation 49 ft / 15 m (AMSL)
Location 51.571443° 0.695583°
Runways 1
Magnetic Variation 0.171° W

METAR

EGMC 132020Z 24015KT CAVOK 04/01 Q0990

Decode

TAF

Not found

Departure Runways

ID Width Length Bearing (true) Bearing (mag) Surface Threshold Offset Overrun Length
06 121 ft / 37 m 5,230 ft / 1,594 m 54.10° 54.27° Asphalt 558 ft / 170 m 0 ft / 0 m
24 121 ft / 37 m 5,230 ft / 1,594 m 234.11° 234.28° Asphalt 466 ft / 142 m 0 ft / 0 m

EGSS

Details ICAO EGSS (STN)
Name London Stansted
Region United Kingdom
Timezone Europe/London (UTC+0.0)
Stats Elevation 348 ft / 106 m (AMSL)
Location 51.885097° 0.234962°
Runways 1
Magnetic Variation 0.363° W

METAR

EGSS 132020Z AUTO 23010KT 9999 NCD 03/01 Q0989

Decode

TAF

TAF EGSS 131658Z 1318/1424 28012KT 9999 SCT025 TEMPO 1319/1322 28020G32KT 5000 SHRA -SHRASN BKN007 PROB30 TEMPO 1319/1322 2000 +SHRA SHRASN BKN004 PROB30 TEMPO 1322/1408 9000 -SHRA BKN014 PROB30 TEMPO 1322/1324 28025G38KT PROB30 TEMPO 1400/1410 28020G30KT PROB30 TEMPO 1420/1424 9000 -SHRA BKN008 BECMG 1416/1419 21009KT

Decode

Destination Runways

ID Width Length Bearing (true) Bearing (mag) Surface Threshold Offset Overrun Length
04 151 ft / 46 m 10,011 ft / 3,052 m 42.79° 43.15° Asphalt 994 ft / 303 m 0 ft / 0 m
22 151 ft / 46 m 10,011 ft / 3,052 m 222.81° 223.17° Asphalt 0 ft / 0 m 0 ft / 0 m

Approach Navaids

Runway Type Ident Frequency Range Bearing (true) Bearing (mag) Slope Elevation
04 Localiser ISED 110.50 MHz 18 nm / 33 km 42.80° 43.16° - 348 ft / 106 m (AMSL)
04 Glidescope ISED 110.50 MHz 10 nm / 19 km 42.80° 43.16° 3.00° 348 ft / 106 m (AMSL)
04 DME ISED 110.50 MHz 18 nm / 33 km - - - 348 ft / 106 m (AMSL)
22 Localiser ISX 110.50 MHz 18 nm / 33 km 222.80° 223.16° - 348 ft / 106 m (AMSL)
22 Glidescope ISX 110.50 MHz 10 nm / 19 km 222.80° 223.16° 3.00° 348 ft / 106 m (AMSL)
22 DME ISX 110.50 MHz 18 nm / 33 km - - - 348 ft / 106 m (AMSL)

Popular Alternatives